createdAt,value
2022-09-12T00:01:36.118Z,10.40
2022-09-12T00:04:03.080Z,9.98
2022-09-12T00:06:37.531Z,10.70
2022-09-12T00:09:10.755Z,8.77
2022-09-12T00:11:41.691Z,9.00
2022-09-12T00:14:10.448Z,9.52
2022-09-12T00:16:38.049Z,9.77
2022-09-12T00:19:06.504Z,11.32
2022-09-12T00:21:34.756Z,11.52
2022-09-12T00:24:01.879Z,8.93
2022-09-12T00:26:28.738Z,10.27
2022-09-12T00:28:55.386Z,11.82
2022-09-12T00:31:25.016Z,9.40
2022-09-12T00:33:52.779Z,10.68
2022-09-12T00:36:21.263Z,11.85
2022-09-12T00:38:49.710Z,11.20
2022-09-12T00:41:21.881Z,8.82
2022-09-12T00:43:51.587Z,8.60
2022-09-12T00:46:34.389Z,8.00
2022-09-12T00:49:14.091Z,7.88
2022-09-12T00:51:47.376Z,9.88
2022-09-12T00:54:19.271Z,15.10
2022-09-12T00:56:47.448Z,9.57
2022-09-12T00:59:32.102Z,10.05
2022-09-12T01:01:58.793Z,8.93
2022-09-12T01:04:28.041Z,10.52
2022-09-12T01:06:57.033Z,9.73
2022-09-12T01:09:25.728Z,9.02
2022-09-12T01:11:53.583Z,9.32
2022-09-12T01:14:20.986Z,9.75
2022-09-12T01:16:49.918Z,11.20
2022-09-12T01:19:35.277Z,9.65
2022-09-12T01:22:28.541Z,9.23
2022-09-12T01:25:10.159Z,9.55
2022-09-12T01:27:47.937Z,9.15
2022-09-12T01:30:31.245Z,7.45
2022-09-12T01:33:20.236Z,7.93
2022-09-12T01:36:08.765Z,8.27
2022-09-12T01:38:40.360Z,7.13
2022-09-12T01:41:23.166Z,8.73
2022-09-12T01:43:58.234Z,7.45
2022-09-12T01:46:40.271Z,12.30
2022-09-12T01:49:23.444Z,7.63
2022-09-12T01:52:18.479Z,7.65
2022-09-12T01:54:53.667Z,7.35
2022-09-12T01:57:36.447Z,8.50
2022-09-12T02:00:09.296Z,9.00
2022-09-12T02:02:51.992Z,8.70
2022-09-12T02:05:36.484Z,8.70
2022-09-12T02:08:18.925Z,8.63
2022-09-12T02:10:53.736Z,12.93
2022-09-12T02:13:36.637Z,7.63
2022-09-12T02:16:17.854Z,8.80
2022-09-12T02:18:50.120Z,8.45
2022-09-12T02:21:19.218Z,6.07
2022-09-12T02:23:51.131Z,8.07
2022-09-12T02:26:34.927Z,9.80
2022-09-12T02:29:02.861Z,8.02
2022-09-12T02:31:37.440Z,8.07
2022-09-12T02:34:13.927Z,7.10
2022-09-12T02:36:52.107Z,8.50
2022-09-12T02:39:20.200Z,4.75
2022-09-12T02:41:50.754Z,7.15
2022-09-12T02:44:17.897Z,6.90
2022-09-12T02:46:48.698Z,8.05
2022-09-12T02:49:16.772Z,7.55
2022-09-12T02:51:44.251Z,12.45
2022-09-12T02:54:11.833Z,8.48
2022-09-12T02:56:41.652Z,8.63
2022-09-12T02:59:11.839Z,7.13
2022-09-12T03:01:49.513Z,6.07
2022-09-12T03:04:31.910Z,7.78
2022-09-12T03:07:21.600Z,7.93
2022-09-12T03:09:54.732Z,13.93
2022-09-12T03:12:30.357Z,13.70
2022-09-12T03:15:11.575Z,15.77
2022-09-12T03:17:56.599Z,9.48
2022-09-12T03:20:44.466Z,9.35
2022-09-12T03:23:26.217Z,15.07
2022-09-12T03:26:09.507Z,41.95
2022-09-12T03:28:39.464Z,44.15
2022-09-12T03:31:17.404Z,26.00
2022-09-12T03:33:44.475Z,29.85
2022-09-12T03:36:22.744Z,25.63
2022-09-12T03:38:49.683Z,15.20
2022-09-12T03:41:16.232Z,15.52
2022-09-12T03:43:42.910Z,14.27
2022-09-12T03:46:09.612Z,15.35
2022-09-12T03:48:36.584Z,12.75
2022-09-12T03:51:04.832Z,16.23
2022-09-12T03:53:31.657Z,17.13
2022-09-12T03:55:58.526Z,14.07
2022-09-12T03:58:29.548Z,16.60
2022-09-12T04:00:56.123Z,14.70
2022-09-12T04:03:22.782Z,14.70
2022-09-12T04:05:49.341Z,11.20
2022-09-12T04:08:15.916Z,13.30
2022-09-12T04:10:42.561Z,11.02
2022-09-12T04:13:09.102Z,11.02
2022-09-12T04:15:35.628Z,9.40
2022-09-12T04:18:05.757Z,10.15
2022-09-12T04:20:33.015Z,12.85
2022-09-12T04:22:59.560Z,13.18
2022-09-12T04:25:27.186Z,11.30
2022-09-12T04:27:53.768Z,10.38
2022-09-12T04:30:20.291Z,10.95
2022-09-12T04:32:46.851Z,10.60
2022-09-12T04:35:14.065Z,11.60
2022-09-12T04:37:40.657Z,11.00
2022-09-12T04:40:07.863Z,12.95
2022-09-12T04:42:34.429Z,13.57
2022-09-12T04:45:00.971Z,12.55
2022-09-12T04:47:28.296Z,12.02
2022-09-12T04:49:54.807Z,11.48
2022-09-12T04:52:21.415Z,11.52
2022-09-12T04:54:48.267Z,10.57
2022-09-12T04:57:14.849Z,12.25
2022-09-12T04:59:41.544Z,10.63
2022-09-12T05:02:08.381Z,13.02
2022-09-12T05:04:35.960Z,11.23
2022-09-12T05:07:03.165Z,9.95
2022-09-12T05:09:29.714Z,9.88
2022-09-12T05:12:04.937Z,12.85
2022-09-12T05:14:33.080Z,10.20
2022-09-12T05:17:01.561Z,10.65
2022-09-12T05:19:30.169Z,10.80
2022-09-12T05:21:56.926Z,14.32
2022-09-12T05:24:24.630Z,11.75
2022-09-12T05:26:51.544Z,12.52
2022-09-12T05:29:18.342Z,13.07
2022-09-12T05:31:44.925Z,13.48
2022-09-12T05:34:11.511Z,13.82
2022-09-12T05:36:38.656Z,11.27
2022-09-12T05:39:05.884Z,12.38
2022-09-12T05:41:33.986Z,14.57
2022-09-12T05:44:02.992Z,13.88
2022-09-12T05:46:32.260Z,14.68
2022-09-12T05:49:03.978Z,13.20
2022-09-12T05:51:34.626Z,12.38
2022-09-12T05:54:06.030Z,12.23
2022-09-12T05:59:02.996Z,14.23
2022-09-12T06:01:31.400Z,13.15
2022-09-12T06:04:00.934Z,12.15
2022-09-12T06:06:29.352Z,15.70
2022-09-12T06:09:01.221Z,14.48
2022-09-12T06:11:29.977Z,15.50
2022-09-12T06:13:58.113Z,16.05
2022-09-12T06:16:27.461Z,17.52
2022-09-12T06:18:56.449Z,13.70
2022-09-12T06:21:25.328Z,15.90
2022-09-12T06:23:54.117Z,15.82
2022-09-12T06:26:23.526Z,18.05
2022-09-12T06:28:50.564Z,13.65
2022-09-12T06:31:21.229Z,14.70
2022-09-12T06:33:50.484Z,17.98
2022-09-12T06:36:29.020Z,20.15
2022-09-12T06:39:01.039Z,17.15
2022-09-12T06:41:29.083Z,17.30
2022-09-12T06:43:55.763Z,17.63
2022-09-12T06:46:22.738Z,15.48
2022-09-12T06:48:50.545Z,19.25
2022-09-12T06:51:19.998Z,18.63
2022-09-12T06:53:47.894Z,21.42
2022-09-12T06:56:15.651Z,20.63
2022-09-12T06:58:43.273Z,18.45
2022-09-12T07:01:12.672Z,22.58
2022-09-12T07:03:41.134Z,22.48
2022-09-12T07:06:12.990Z,19.45
2022-09-12T07:08:41.058Z,16.08
2022-09-12T07:11:18.247Z,16.25
2022-09-12T07:13:47.250Z,16.70
2022-09-12T07:16:19.211Z,13.23
2022-09-12T07:18:51.131Z,17.85
2022-09-12T07:21:17.708Z,19.38
2022-09-12T07:23:45.541Z,12.82
2022-09-12T07:26:13.506Z,13.32
2022-09-12T07:28:40.403Z,15.35
2022-09-12T07:31:12.354Z,13.07
2022-09-12T07:33:39.746Z,11.98
2022-09-12T07:36:11.895Z,13.77
2022-09-12T07:38:39.424Z,11.23
2022-09-12T07:41:19.793Z,11.95
2022-09-12T07:43:47.418Z,15.07
2022-09-12T07:46:15.002Z,14.77
2022-09-12T07:48:41.617Z,8.40
2022-09-12T07:51:10.221Z,9.80
2022-09-12T07:53:39.290Z,12.77
2022-09-12T07:56:07.778Z,10.38
2022-09-12T07:58:36.602Z,10.60
2022-09-12T08:01:14.829Z,10.82
2022-09-12T08:03:42.707Z,9.27
2022-09-12T08:06:15.246Z,10.05
2022-09-12T08:08:42.590Z,8.20
2022-09-12T08:11:12.123Z,13.20
2022-09-12T08:13:40.192Z,10.07
2022-09-12T08:16:15.467Z,7.93
2022-09-12T08:18:42.224Z,9.85
2022-09-12T08:21:14.002Z,10.93
2022-09-12T08:23:41.131Z,11.15
2022-09-12T08:26:08.279Z,12.93
2022-09-12T08:28:35.845Z,9.93
2022-09-12T08:31:11.361Z,7.10
2022-09-12T08:33:38.494Z,9.50
2022-09-12T08:36:11.598Z,7.50
2022-09-12T08:38:40.960Z,7.93
2022-09-12T08:41:28.934Z,8.15
2022-09-12T08:43:56.951Z,8.40
2022-09-12T08:46:31.724Z,6.40
2022-09-12T08:49:01.302Z,11.02
2022-09-12T08:51:29.405Z,8.80
2022-09-12T08:53:57.839Z,5.20
2022-09-12T08:56:31.694Z,5.50
2022-09-12T08:58:59.382Z,6.65
2022-09-12T09:01:35.660Z,5.65
2022-09-12T09:04:13.353Z,5.93
2022-09-12T09:07:08.442Z,6.13
2022-09-12T09:09:50.286Z,9.20
2022-09-12T09:12:26.272Z,8.68
2022-09-12T09:15:26.296Z,13.90
2022-09-12T09:18:00.466Z,6.40
2022-09-12T09:20:36.597Z,6.88
2022-09-12T09:23:39.239Z,5.80
2022-09-12T09:26:13.798Z,6.10
2022-09-12T09:28:53.163Z,4.88
2022-09-12T09:31:25.574Z,4.90
2022-09-12T09:33:55.538Z,4.78
2022-09-12T09:36:44.292Z,5.18
2022-09-12T09:39:13.560Z,5.20
2022-09-12T09:42:03.782Z,4.53
2022-09-12T09:44:31.344Z,4.47
2022-09-12T09:46:59.885Z,5.50
2022-09-12T09:49:30.230Z,5.63
2022-09-12T09:52:00.802Z,5.18
2022-09-12T09:54:39.034Z,6.40
2022-09-12T09:57:34.537Z,5.03
2022-09-12T10:00:27.715Z,5.90
2022-09-12T10:03:13.513Z,5.07
2022-09-12T10:05:55.336Z,7.97
2022-09-12T10:08:26.812Z,4.53
2022-09-12T10:11:16.217Z,4.38
2022-09-12T10:13:54.585Z,4.28
2022-09-12T10:16:23.014Z,4.80
2022-09-12T10:18:52.450Z,5.25
2022-09-12T10:21:47.512Z,4.18
2022-09-12T10:24:25.835Z,4.47
2022-09-12T10:27:08.343Z,4.10
2022-09-12T10:29:46.504Z,5.00
2022-09-12T10:32:40.091Z,4.88
2022-09-12T10:35:31.319Z,4.45
2022-09-12T10:40:30.547Z,4.70
2022-09-12T10:43:02.761Z,4.22
2022-09-12T10:45:30.492Z,4.93
2022-09-12T10:48:03.103Z,6.80
2022-09-12T10:50:41.226Z,5.82
2022-09-12T10:53:21.847Z,4.60
2022-09-12T10:56:09.775Z,6.03
2022-09-12T10:58:40.893Z,4.72
2022-09-12T11:01:44.269Z,3.72
2022-09-12T11:04:19.975Z,5.55
2022-09-12T11:06:57.156Z,4.57
2022-09-12T11:09:39.383Z,4.45
2022-09-12T11:12:38.299Z,4.05
2022-09-12T11:15:27.376Z,3.72
2022-09-12T11:18:21.017Z,5.60
2022-09-12T11:21:15.344Z,4.65
2022-09-12T11:23:57.486Z,4.15
2022-09-12T11:27:02.766Z,4.53
2022-09-12T11:29:47.896Z,4.10
2022-09-12T11:32:48.602Z,4.25
2022-09-12T11:35:27.633Z,5.10
2022-09-12T11:38:09.471Z,4.68
2022-09-12T11:40:54.252Z,4.72
2022-09-12T11:43:46.201Z,4.50
2022-09-12T11:46:34.812Z,5.03
2022-09-12T11:49:13.645Z,3.88
2022-09-12T11:51:46.377Z,3.90
2022-09-12T11:54:40.914Z,2.88
2022-09-12T11:57:25.559Z,2.85
2022-09-12T11:59:55.986Z,3.25
2022-09-12T12:02:31.388Z,3.30
2022-09-12T12:05:24.826Z,4.85
2022-09-12T12:07:55.538Z,3.28
2022-09-12T12:10:31.050Z,2.97
2022-09-12T12:13:00.902Z,3.13
2022-09-12T12:15:29.593Z,4.32
2022-09-12T12:18:17.639Z,5.72
2022-09-12T12:20:44.600Z,2.65
2022-09-12T12:23:25.343Z,4.38
2022-09-12T12:25:55.059Z,3.00
2022-09-12T12:28:50.342Z,3.17
2022-09-12T12:31:18.276Z,3.38
2022-09-12T12:33:44.920Z,3.05
2022-09-12T12:36:38.663Z,3.33
2022-09-12T12:39:33.010Z,2.78
2022-09-12T12:42:03.520Z,3.25
2022-09-12T12:44:45.129Z,3.95
2022-09-12T12:47:27.533Z,2.85
2022-09-12T12:50:02.568Z,12.43
2022-09-12T12:52:32.756Z,21.23
2022-09-12T12:55:01.423Z,8.65
2022-09-12T12:57:33.907Z,15.23
2022-09-12T13:00:09.819Z,19.27
2022-09-12T13:02:41.107Z,19.17
2022-09-12T13:05:20.033Z,8.18
2022-09-12T13:07:48.289Z,24.83
2022-09-12T13:10:28.840Z,5.43
2022-09-12T13:13:02.712Z,15.00
2022-09-12T13:15:35.227Z,7.32
2022-09-12T13:18:05.765Z,12.50
2022-09-12T13:20:37.839Z,6.97
2022-09-12T13:23:04.377Z,4.93
2022-09-12T13:25:36.602Z,5.32
2022-09-12T13:28:05.352Z,4.75
2022-09-12T13:30:35.483Z,3.30
2022-09-12T13:33:17.027Z,2.93
2022-09-12T13:35:58.590Z,2.92
2022-09-12T13:38:31.279Z,3.70
2022-09-12T13:41:17.014Z,2.72
2022-09-12T13:43:48.955Z,1.88
2022-09-12T13:46:21.713Z,2.53
2022-09-12T13:48:48.875Z,6.95
2022-09-12T13:51:25.153Z,1.48
2022-09-12T13:53:56.299Z,1.73
2022-09-12T13:56:23.691Z,2.05
2022-09-12T13:58:58.861Z,1.88
2022-09-12T14:01:38.122Z,2.92
2022-09-12T14:04:40.593Z,1.65
2022-09-12T14:07:22.980Z,3.53
2022-09-12T14:09:55.814Z,6.78
2022-09-12T14:12:43.434Z,1.80
2022-09-12T14:15:24.551Z,2.00
2022-09-12T14:17:54.779Z,2.88
2022-09-12T14:20:23.391Z,2.47
2022-09-12T14:22:53.004Z,3.13
2022-09-12T14:25:23.678Z,10.70
2022-09-12T14:27:55.270Z,2.80
2022-09-12T14:30:36.856Z,3.03
2022-09-12T14:33:12.650Z,2.65
2022-09-12T14:36:16.349Z,3.00
2022-09-12T14:38:45.803Z,4.07
2022-09-12T14:41:20.762Z,7.28
2022-09-12T14:43:51.905Z,7.43
2022-09-12T14:46:35.086Z,5.10
2022-09-12T14:49:10.418Z,3.38
2022-09-12T14:51:51.213Z,2.67
2022-09-12T14:54:36.362Z,16.88
2022-09-12T14:57:26.222Z,16.08
2022-09-12T14:59:52.960Z,11.10
2022-09-12T15:02:22.192Z,5.72
2022-09-12T15:05:16.197Z,4.55
2022-09-12T15:07:46.515Z,4.68
2022-09-12T15:10:26.729Z,3.10
2022-09-12T15:13:05.560Z,3.25
2022-09-12T15:15:32.789Z,4.72
2022-09-12T15:18:01.408Z,4.75
2022-09-12T15:20:32.350Z,4.50
2022-09-12T15:22:59.160Z,5.47
2022-09-12T15:25:25.714Z,3.85
2022-09-12T15:27:53.593Z,5.07
2022-09-12T15:30:20.157Z,5.70
2022-09-12T15:32:46.801Z,7.00
2022-09-12T15:35:19.013Z,2.60
2022-09-12T15:37:45.851Z,4.75
2022-09-12T15:40:13.061Z,2.90
2022-09-12T15:42:40.339Z,3.05
2022-09-12T15:45:18.943Z,4.47
2022-09-12T15:47:45.767Z,4.97
2022-09-12T15:50:12.702Z,3.72
2022-09-12T15:52:39.405Z,3.85
2022-09-12T15:55:09.949Z,4.32
2022-09-12T15:57:36.501Z,4.22
2022-09-12T16:00:05.423Z,3.03
2022-09-12T16:02:38.567Z,2.22
2022-09-12T16:05:06.369Z,2.55
2022-09-12T16:07:32.959Z,3.47
2022-09-12T16:09:59.608Z,2.33
2022-09-12T16:12:26.241Z,5.10
2022-09-12T16:14:52.803Z,3.25
2022-09-12T16:17:19.438Z,1.95
2022-09-12T16:19:45.976Z,2.75
2022-09-12T16:22:12.615Z,4.88
2022-09-12T16:24:40.163Z,3.97
2022-09-12T16:27:07.008Z,2.95
2022-09-12T16:29:33.716Z,7.03
2022-09-12T16:32:00.382Z,2.85
2022-09-12T16:34:27.155Z,2.17
2022-09-12T16:36:53.791Z,4.18
2022-09-12T16:39:20.470Z,3.00
2022-09-12T16:41:47.027Z,5.70
2022-09-12T16:44:13.559Z,3.08
2022-09-12T16:46:40.211Z,2.10
2022-09-12T16:49:07.106Z,3.35
2022-09-12T16:51:37.319Z,3.00
2022-09-12T16:54:04.330Z,2.33
2022-09-12T16:56:31.028Z,2.90
2022-09-12T16:58:57.633Z,2.97
2022-09-12T17:01:26.154Z,3.65
2022-09-12T17:03:57.765Z,7.72
2022-09-12T17:06:25.511Z,2.75
2022-09-12T17:08:54.099Z,4.30
2022-09-12T17:11:30.850Z,6.57
2022-09-12T17:14:07.325Z,4.05
2022-09-12T17:16:39.872Z,6.00
2022-09-12T17:19:07.680Z,5.50
2022-09-12T17:21:35.450Z,3.88
2022-09-12T17:24:03.349Z,6.80
2022-09-12T17:26:30.062Z,6.07
2022-09-12T17:28:56.650Z,4.20
2022-09-12T17:31:23.338Z,8.63
2022-09-12T17:33:50.055Z,5.78
2022-09-12T17:36:17.957Z,7.13
2022-09-12T17:38:45.980Z,6.35
2022-09-12T17:41:17.662Z,6.07
2022-09-12T17:43:50.904Z,8.43
2022-09-12T17:46:19.062Z,11.68
2022-09-12T17:48:51.461Z,8.35
2022-09-12T17:51:18.158Z,9.27
2022-09-12T17:53:44.754Z,7.88
2022-09-12T17:56:11.869Z,8.38
2022-09-12T17:58:38.897Z,7.97
2022-09-12T18:01:25.216Z,8.63
2022-09-12T18:03:56.166Z,7.65
2022-09-12T18:06:23.716Z,8.15
2022-09-12T18:08:50.467Z,12.18
2022-09-12T18:11:17.510Z,9.70
2022-09-12T18:13:44.103Z,7.65
2022-09-12T18:16:13.568Z,8.52
2022-09-12T18:18:40.377Z,6.95
2022-09-12T18:21:08.417Z,9.45
2022-09-12T18:23:35.170Z,6.60
2022-09-12T18:26:08.678Z,9.13
2022-09-12T18:28:38.194Z,7.03
2022-09-12T18:31:11.512Z,10.63
2022-09-12T18:33:38.182Z,7.82
2022-09-12T18:36:06.857Z,7.80
2022-09-12T18:38:33.728Z,7.88
2022-09-12T18:41:11.679Z,7.32
2022-09-12T18:43:38.827Z,4.90
2022-09-12T18:46:12.078Z,5.68
2022-09-12T18:48:38.954Z,6.85
2022-09-12T18:51:14.800Z,9.23
2022-09-12T18:53:42.571Z,5.70
2022-09-12T18:56:13.861Z,9.13
2022-09-12T19:01:17.027Z,5.13
2022-09-12T19:03:44.348Z,7.25
2022-09-12T19:06:17.835Z,10.77
2022-09-12T19:08:45.631Z,6.45
2022-09-12T19:11:13.159Z,8.90
2022-09-12T19:13:42.064Z,6.40
2022-09-12T19:16:11.108Z,6.10
2022-09-12T19:18:39.015Z,7.50
2022-09-12T19:21:07.882Z,7.22
2022-09-12T19:23:35.496Z,7.60
2022-09-12T19:26:08.024Z,11.63
2022-09-12T19:28:35.042Z,8.55
2022-09-12T19:31:07.070Z,7.50
2022-09-12T19:33:34.161Z,8.27
2022-09-12T19:36:03.396Z,7.82
2022-09-12T19:38:30.296Z,8.07
2022-09-12T19:40:58.422Z,8.90
2022-09-12T19:43:25.949Z,6.70
2022-09-12T19:45:53.052Z,9.90
2022-09-12T19:48:20.383Z,13.13
2022-09-12T19:50:47.385Z,16.02
2022-09-12T19:53:15.023Z,8.82
2022-09-12T19:55:41.677Z,8.50
2022-09-12T19:58:08.381Z,10.65
2022-09-12T20:00:36.036Z,12.07
2022-09-12T20:03:03.989Z,10.32
2022-09-12T20:05:32.899Z,9.50
2022-09-12T20:07:59.820Z,9.27
2022-09-12T20:10:26.622Z,8.80
2022-09-12T20:12:53.241Z,14.68
2022-09-12T20:15:19.781Z,16.02
2022-09-12T20:17:46.370Z,18.08
2022-09-12T20:20:12.948Z,22.52
2022-09-12T20:22:40.285Z,22.55
2022-09-12T20:25:07.546Z,23.73
2022-09-12T20:27:34.189Z,29.35
2022-09-12T20:30:00.799Z,21.33
2022-09-12T20:32:28.955Z,18.90
2022-09-12T20:34:56.403Z,16.08
2022-09-12T20:37:23.704Z,12.38
2022-09-12T20:39:51.095Z,16.08
2022-09-12T20:42:17.859Z,14.68
2022-09-12T20:44:44.429Z,15.60
2022-09-12T20:47:11.203Z,13.07
2022-09-12T20:49:37.725Z,14.05
2022-09-12T20:52:04.670Z,11.27
2022-09-12T20:54:31.238Z,13.98
2022-09-12T20:56:57.816Z,11.63
2022-09-12T20:59:24.373Z,10.02
2022-09-12T21:01:51.112Z,14.55
2022-09-12T21:04:18.485Z,10.57
2022-09-12T21:06:45.075Z,11.35
2022-09-12T21:09:11.621Z,10.95
2022-09-12T21:11:38.217Z,10.18
2022-09-12T21:14:04.876Z,13.10
2022-09-12T21:16:31.798Z,10.63
2022-09-12T21:18:59.545Z,11.18
2022-09-12T21:21:26.659Z,11.73
2022-09-12T21:23:55.316Z,11.13
2022-09-12T21:26:21.874Z,11.77
2022-09-12T21:28:48.591Z,11.55
2022-09-12T21:31:15.242Z,10.32
2022-09-12T21:33:41.911Z,9.73
2022-09-12T21:36:09.644Z,10.43
2022-09-12T21:38:36.428Z,10.20
2022-09-12T21:41:08.778Z,13.93
2022-09-12T21:43:36.454Z,14.20
2022-09-12T21:46:03.964Z,9.82
2022-09-12T21:48:30.683Z,10.20
2022-09-12T21:50:57.433Z,12.20
2022-09-12T21:53:24.967Z,11.05
2022-09-12T21:55:51.797Z,11.13
2022-09-12T21:58:18.387Z,14.82
2022-09-12T22:00:45.233Z,11.25
2022-09-12T22:03:12.709Z,10.77
2022-09-12T22:05:43.200Z,12.13
2022-09-12T22:08:10.906Z,11.40
2022-09-12T22:10:38.542Z,11.55
2022-09-12T22:13:05.488Z,11.23
2022-09-12T22:15:40.946Z,10.32
2022-09-12T22:18:07.901Z,9.07
2022-09-12T22:20:34.505Z,9.25
2022-09-12T22:23:24.344Z,12.07
2022-09-12T22:25:55.504Z,14.50
2022-09-12T22:28:22.654Z,14.68
2022-09-12T22:30:49.267Z,14.35
2022-09-12T22:33:15.861Z,14.18
2022-09-12T22:35:42.491Z,17.83
2022-09-12T22:38:09.217Z,19.50
2022-09-12T22:40:35.776Z,15.23
2022-09-12T22:43:02.426Z,19.95
2022-09-12T22:45:29.314Z,19.08
2022-09-12T22:48:00.379Z,15.38
2022-09-12T22:50:27.639Z,14.82
2022-09-12T22:52:54.288Z,15.18
2022-09-12T22:55:20.977Z,12.32
2022-09-12T22:57:47.581Z,14.75
2022-09-12T23:00:14.987Z,11.60
2022-09-12T23:02:41.666Z,12.52
2022-09-12T23:05:08.581Z,9.50
2022-09-12T23:07:35.708Z,10.30
2022-09-12T23:10:02.397Z,11.50
2022-09-12T23:12:29.026Z,11.82
2022-09-12T23:14:55.572Z,10.20
2022-09-12T23:17:22.159Z,10.43
2022-09-12T23:19:48.725Z,10.40
2022-09-12T23:22:15.363Z,11.80
2022-09-12T23:24:41.894Z,12.32
2022-09-12T23:27:08.952Z,10.43
2022-09-12T23:29:35.780Z,10.52
2022-09-12T23:32:05.946Z,12.25
2022-09-12T23:34:33.660Z,12.43
2022-09-12T23:37:00.248Z,13.23
2022-09-12T23:39:26.843Z,11.80
2022-09-12T23:41:53.406Z,11.40
2022-09-12T23:44:19.967Z,10.13
2022-09-12T23:46:46.638Z,12.20
2022-09-12T23:49:13.406Z,13.90
2022-09-12T23:51:40.066Z,11.85
2022-09-12T23:54:06.709Z,13.15
2022-09-12T23:56:33.297Z,12.07
2022-09-12T23:59:00.036Z,18.90
